Main page
Satellite images 15-day forecastsClimateMarine weather Cyclones Lightning AirportsFAQ Newsletter About
Weather : Europe Africa North America South America Asia Australia-Oceania Others
Languages Contact

Baia Mare, Romania

latitude: 47-40N, longitude: 023-35E, elevation: 218 m


METAR: LRBM 301500Z 28006KT 250V330 CAVOK 10/02 Q1023
TAF: LRBM 301400Z 3015/3024 27008KT CAVOK

Time: 17:10 (15:10 UTC)

Current weather observation

The report was made 10 minutes ago, at 15:00 UTC
Wind 6 kt from the West, varying between West/Southwest and North/Northwest
Temperature 10°C
Humidity 57%
Pressure 1023 hPa
Visibility 10 km or more
no clouds below 1500 m and no cumulonimbus

Change units

Forecast

The report was made 1 hour and 10 minutes ago, at 14:00 UTC
Forecast valid from 30 at 15 UTC to 30 at 24 UTC
Wind 8 kt from the West
Visibility 10 km or more
no clouds below 1500 m and no cumulonimbus
The information on this site is subject to a disclaimer
Weather : Europe Africa North America South America Asia Australia-Oceania Others
Satellite images 15-day forecastsClimateMarine weather Cyclones Lightning AirportsFAQ Languages Contact Newsletter About